Doorn, Netherlands
Current Conditions -  °F | °C
As of 3:55 AM on Thursday 23 Oct 2014 (Local Time) from EHDL Reporting Station
Haze Haze  
Wind Chill: 48°   Ceiling: 2500
Heat Index: 48°   Visibility: 2.5mi
Dew Point: 46°   Wind: 3mph
Humidity: 93%   Direction: 210°SSW
Pressure: 30.15"   Gusts: NA
Location:  52.03°N, 5.35°E
Report Text: EHDL 230155Z AUTO 21003KT 4100 BR SCT015 SCT021 OVC025 09/08 Q1021 REDZ GRN
Loading
Personal Weather Stations






























Interactive Weather Map
Tropical Storm Tracking
New forecast layout! Learn more

10-Day Weather Forecast

Advertisements
Track Severe Weather on mobile